createdAt,value
2018-06-18T00:02:01.230Z,54.74
2018-06-18T00:04:27.209Z,54.62
2018-06-18T00:06:53.191Z,54.67
2018-06-18T00:09:19.174Z,54.70
2018-06-18T00:11:45.156Z,54.67
2018-06-18T00:14:11.143Z,54.90
2018-06-18T00:16:37.121Z,54.80
2018-06-18T00:19:03.101Z,54.80
2018-06-18T00:21:29.079Z,54.83
2018-06-18T00:23:55.062Z,54.66
2018-06-18T00:26:21.048Z,54.84
2018-06-18T00:28:47.032Z,54.77
2018-06-18T00:31:13.055Z,54.75
2018-06-18T00:33:39.022Z,54.82
2018-06-18T00:36:04.996Z,54.62
2018-06-18T00:38:30.979Z,54.79
2018-06-18T00:40:56.955Z,54.73
2018-06-18T00:43:22.939Z,54.64
2018-06-18T00:45:48.920Z,54.76
2018-06-18T00:48:14.890Z,55.03
2018-06-18T00:50:40.876Z,54.66
2018-06-18T00:53:06.866Z,54.94
2018-06-18T00:55:32.838Z,54.76
2018-06-18T00:57:58.830Z,54.74
2018-06-18T01:00:24.818Z,54.71
2018-06-18T01:02:50.804Z,54.81
2018-06-18T01:05:16.790Z,54.74
2018-06-18T01:07:42.767Z,54.79
2018-06-18T01:10:08.757Z,54.76
2018-06-18T01:12:34.736Z,54.82
2018-06-18T01:15:00.718Z,54.72
2018-06-18T01:17:26.735Z,54.66
2018-06-18T01:19:52.718Z,54.74
2018-06-18T01:22:18.703Z,54.71
2018-06-18T01:24:44.687Z,54.72
2018-06-18T01:27:10.669Z,54.97
2018-06-18T01:29:36.638Z,54.71
2018-06-18T01:32:02.623Z,54.82
2018-06-18T01:34:28.604Z,55.30
2018-06-18T01:36:54.586Z,55.37
2018-06-18T01:39:20.568Z,55.04
2018-06-18T01:41:46.547Z,54.82
2018-06-18T01:44:12.526Z,54.75
2018-06-18T01:46:38.505Z,54.90
2018-06-18T01:49:04.499Z,55.19
2018-06-18T01:51:30.479Z,54.98
2018-06-18T01:53:56.458Z,55.13
2018-06-18T01:56:22.442Z,54.92
2018-06-18T01:58:48.451Z,54.87
2018-06-18T02:01:14.446Z,54.81
2018-06-18T02:03:40.419Z,55.09
2018-06-18T02:06:06.410Z,54.86
2018-06-18T02:08:32.393Z,54.95
2018-06-18T02:10:58.374Z,55.01
2018-06-18T02:13:24.355Z,54.82
2018-06-18T02:15:50.337Z,54.92
2018-06-18T02:18:16.322Z,54.99
2018-06-18T02:20:42.313Z,54.83
2018-06-18T02:23:08.296Z,54.81
2018-06-18T02:25:34.285Z,54.91
2018-06-18T02:28:00.273Z,54.92
2018-06-18T02:30:26.258Z,54.83
2018-06-18T02:32:52.264Z,54.76
2018-06-18T02:35:18.247Z,54.78
2018-06-18T02:37:44.233Z,54.78
2018-06-18T02:40:10.219Z,54.75
2018-06-18T02:42:36.210Z,54.75
2018-06-18T02:45:02.209Z,54.76
2018-06-18T02:47:28.219Z,54.92
2018-06-18T02:49:54.207Z,54.89
2018-06-18T02:52:20.190Z,54.81
2018-06-18T02:54:46.173Z,54.86
2018-06-18T02:57:12.156Z,54.74
2018-06-18T02:59:38.140Z,54.70
2018-06-18T03:02:04.126Z,54.71
2018-06-18T03:04:30.106Z,54.75
2018-06-18T03:06:56.093Z,54.71
2018-06-18T03:09:22.079Z,54.66
2018-06-18T03:11:48.065Z,54.61
2018-06-18T03:14:14.042Z,54.81
2018-06-18T03:16:40.038Z,54.73
2018-06-18T03:19:06.039Z,54.68
2018-06-18T03:21:32.067Z,54.81
2018-06-18T03:23:58.052Z,54.75
2018-06-18T03:26:24.030Z,54.76
2018-06-18T03:28:50.014Z,54.67
2018-06-18T03:31:16.006Z,54.67
2018-06-18T03:33:41.978Z,54.66
2018-06-18T03:36:07.982Z,54.74
2018-06-18T03:38:33.967Z,54.73
2018-06-18T03:40:59.949Z,54.66
2018-06-18T03:43:25.932Z,54.61
2018-06-18T03:45:51.911Z,54.70
2018-06-18T03:48:17.894Z,54.60
2018-06-18T03:50:43.905Z,54.67
2018-06-18T03:53:09.894Z,54.63
2018-06-18T03:55:35.874Z,54.68
2018-06-18T03:58:01.884Z,54.55
2018-06-18T04:00:27.843Z,54.52
2018-06-18T04:02:53.833Z,54.57
2018-06-18T04:05:19.833Z,54.61
2018-06-18T04:07:45.809Z,54.64
2018-06-18T04:10:11.789Z,54.51
2018-06-18T04:12:37.774Z,54.53
2018-06-18T04:15:03.764Z,54.62
2018-06-18T04:17:29.761Z,54.58
2018-06-18T04:19:55.744Z,54.49
2018-06-18T04:22:21.761Z,54.70
2018-06-18T04:24:47.771Z,54.73
2018-06-18T04:27:13.738Z,54.73
2018-06-18T04:29:39.726Z,54.44
2018-06-18T04:32:05.720Z,54.50
2018-06-18T04:34:31.711Z,54.86
2018-06-18T04:36:57.683Z,54.74
2018-06-18T04:39:23.700Z,55.08
2018-06-18T04:41:49.651Z,54.65
2018-06-18T04:44:15.630Z,55.44
2018-06-18T04:46:41.702Z,55.42
2018-06-18T04:49:07.681Z,55.60
2018-06-18T04:51:33.703Z,55.60
2018-06-18T04:53:59.730Z,55.59
2018-06-18T04:56:25.816Z,56.55
2018-06-18T04:58:51.735Z,56.64
2018-06-18T05:01:17.729Z,56.40
2018-06-18T05:03:43.711Z,56.61
2018-06-18T05:06:09.693Z,56.05
2018-06-18T05:08:35.674Z,56.76
2018-06-18T05:11:01.685Z,56.62
2018-06-18T05:13:27.695Z,56.42
2018-06-18T05:15:53.697Z,55.92
2018-06-18T05:18:19.678Z,55.44
2018-06-18T05:20:45.675Z,56.53
2018-06-18T05:23:11.681Z,56.52
2018-06-18T05:25:37.650Z,55.65
2018-06-18T05:28:03.705Z,56.64
2018-06-18T05:30:29.727Z,56.12
2018-06-18T05:32:55.775Z,56.71
2018-06-18T05:35:21.733Z,56.56
2018-06-18T05:37:47.722Z,56.15
2018-06-18T05:40:13.725Z,55.91
2018-06-18T05:42:39.718Z,56.65
2018-06-18T05:45:05.703Z,55.94
2018-06-18T05:47:31.754Z,55.51
2018-06-18T05:49:57.685Z,56.44
2018-06-18T05:52:23.666Z,55.90
2018-06-18T05:54:49.700Z,55.85
2018-06-18T05:57:15.665Z,56.53
2018-06-18T05:59:41.653Z,56.67
2018-06-18T06:02:07.625Z,56.49
2018-06-18T06:04:33.625Z,56.60
2018-06-18T06:06:59.609Z,56.70
2018-06-18T06:09:25.624Z,56.36
2018-06-18T06:11:51.603Z,56.07
2018-06-18T06:14:17.577Z,56.40
2018-06-18T06:16:43.737Z,56.66
2018-06-18T06:19:09.656Z,55.67
2018-06-18T06:21:35.648Z,55.54
2018-06-18T06:24:01.622Z,55.74
2018-06-18T06:26:27.608Z,55.59
2018-06-18T06:28:53.602Z,56.90
2018-06-18T06:31:19.590Z,56.38
2018-06-18T06:33:45.577Z,56.62
2018-06-18T06:36:11.553Z,57.83
2018-06-18T06:38:37.540Z,57.45
2018-06-18T06:41:03.537Z,58.30
2018-06-18T06:43:29.513Z,56.64
2018-06-18T06:45:55.503Z,57.56
2018-06-18T06:48:21.499Z,56.94
2018-06-18T06:50:47.485Z,57.08
2018-06-18T06:53:13.465Z,57.79
2018-06-18T06:55:39.457Z,57.67
2018-06-18T06:58:05.455Z,57.27
2018-06-18T07:00:31.443Z,56.48
2018-06-18T07:02:57.420Z,56.55
2018-06-18T07:05:23.424Z,56.18
2018-06-18T07:07:49.401Z,56.12
2018-06-18T07:10:15.519Z,56.05
2018-06-18T07:12:41.458Z,56.02
2018-06-18T07:15:07.433Z,56.00
2018-06-18T07:17:33.420Z,56.41
2018-06-18T07:19:59.413Z,56.41
2018-06-18T07:22:25.410Z,55.82
2018-06-18T07:24:51.396Z,56.26
2018-06-18T07:27:17.383Z,55.75
2018-06-18T07:29:43.365Z,55.85
2018-06-18T07:32:09.344Z,56.51
2018-06-18T07:34:35.332Z,55.97
2018-06-18T07:37:01.314Z,56.66
2018-06-18T07:39:27.295Z,56.48
2018-06-18T07:41:53.284Z,56.48
2018-06-18T07:44:19.278Z,55.84
2018-06-18T07:46:45.265Z,55.95
2018-06-18T07:49:11.249Z,55.67
2018-06-18T07:51:37.314Z,55.79
2018-06-18T07:54:03.238Z,55.94
2018-06-18T07:56:29.223Z,55.62
2018-06-18T07:58:55.207Z,55.61
2018-06-18T08:01:21.275Z,55.50
2018-06-18T08:03:47.256Z,55.47
2018-06-18T08:06:13.244Z,55.56
2018-06-18T08:08:39.231Z,55.48
2018-06-18T08:11:05.258Z,55.79
2018-06-18T08:13:31.249Z,55.50
2018-06-18T08:15:57.243Z,55.63
2018-06-18T08:18:23.220Z,55.44
2018-06-18T08:20:49.210Z,55.53
2018-06-18T08:23:15.193Z,55.28
2018-06-18T08:25:41.173Z,55.33
2018-06-18T08:28:07.154Z,55.70
2018-06-18T08:30:33.148Z,55.91
2018-06-18T08:32:59.152Z,55.28
2018-06-18T08:35:25.125Z,55.50
2018-06-18T08:37:51.107Z,55.37
2018-06-18T08:40:17.093Z,55.59
2018-06-18T08:42:43.092Z,55.79
2018-06-18T08:45:09.094Z,55.97
2018-06-18T08:47:35.073Z,55.29
2018-06-18T08:50:01.057Z,55.76
2018-06-18T08:52:27.037Z,55.29
2018-06-18T08:54:53.011Z,55.28
2018-06-18T08:57:19.000Z,55.51
2018-06-18T08:59:44.985Z,55.21
2018-06-18T09:02:10.975Z,55.16
2018-06-18T09:04:36.959Z,55.21
2018-06-18T09:07:03.033Z,55.65
2018-06-18T09:09:28.995Z,55.48
2018-06-18T09:11:54.978Z,55.48
2018-06-18T09:14:20.966Z,55.07
2018-06-18T09:16:46.975Z,55.11
2018-06-18T09:19:12.956Z,55.16
2018-06-18T09:21:38.940Z,55.06
2018-06-18T09:24:04.927Z,55.53
2018-06-18T09:26:30.903Z,55.17
2018-06-18T09:28:56.886Z,55.41
2018-06-18T09:31:22.863Z,55.24
2018-06-18T09:33:48.851Z,55.08
2018-06-18T09:36:14.852Z,55.44
2018-06-18T09:38:40.841Z,55.53
2018-06-18T09:41:06.857Z,55.05
2018-06-18T09:43:32.843Z,55.52
2018-06-18T09:45:58.818Z,55.29
2018-06-18T09:48:24.807Z,55.42
2018-06-18T09:50:50.794Z,55.32
2018-06-18T09:53:16.772Z,55.12
2018-06-18T09:55:42.809Z,55.03
2018-06-18T09:58:08.735Z,55.43
2018-06-18T10:00:34.728Z,55.04
2018-06-18T10:03:00.732Z,54.99
2018-06-18T10:05:26.713Z,55.23
2018-06-18T10:07:52.690Z,55.06
2018-06-18T10:10:18.680Z,54.90
2018-06-18T10:12:44.653Z,55.04
2018-06-18T10:15:10.639Z,54.98
2018-06-18T10:17:36.637Z,55.18
2018-06-18T10:20:02.628Z,55.21
2018-06-18T10:22:28.611Z,55.18
2018-06-18T10:24:54.592Z,55.10
2018-06-18T10:27:20.572Z,55.03
2018-06-18T10:29:46.561Z,55.09
2018-06-18T10:32:12.545Z,55.02
2018-06-18T10:34:38.518Z,55.03
2018-06-18T10:37:04.499Z,54.85
2018-06-18T10:39:30.506Z,54.97
2018-06-18T10:41:56.508Z,54.86
2018-06-18T10:44:22.509Z,54.84
2018-06-18T10:46:48.537Z,54.66
2018-06-18T10:49:14.552Z,54.80
2018-06-18T10:51:40.558Z,54.73
2018-06-18T10:54:06.554Z,54.62
2018-06-18T10:56:32.562Z,54.76
2018-06-18T10:58:58.569Z,54.64
2018-06-18T11:01:24.563Z,54.70
2018-06-18T11:03:50.640Z,54.49
2018-06-18T11:06:16.578Z,54.62
2018-06-18T11:08:42.573Z,54.63
2018-06-18T11:11:08.592Z,54.52
2018-06-18T11:13:34.584Z,54.50
2018-06-18T11:16:00.612Z,54.68
2018-06-18T11:18:26.591Z,54.68
2018-06-18T11:20:52.593Z,54.48
2018-06-18T11:23:18.600Z,54.68
2018-06-18T11:25:44.597Z,54.35
2018-06-18T11:28:10.607Z,54.44
2018-06-18T11:30:36.669Z,54.49
2018-06-18T11:33:02.670Z,54.39
2018-06-18T11:35:28.662Z,54.67
2018-06-18T11:37:54.685Z,54.49
2018-06-18T11:40:20.749Z,54.53
2018-06-18T11:42:46.713Z,54.43
2018-06-18T11:45:12.721Z,54.27
2018-06-18T11:47:38.728Z,54.55
2018-06-18T11:50:04.730Z,54.43
2018-06-18T11:52:30.756Z,54.35
2018-06-18T11:54:56.844Z,54.32
2018-06-18T11:57:22.850Z,54.48
2018-06-18T11:59:48.997Z,54.38
2018-06-18T12:02:15.007Z,54.33
2018-06-18T12:04:41.011Z,54.33
2018-06-18T12:07:07.037Z,54.35
2018-06-18T12:09:33.122Z,54.36
2018-06-18T12:11:59.075Z,54.31
2018-06-18T12:14:25.070Z,54.39
2018-06-18T12:16:51.099Z,54.32
2018-06-18T12:19:17.046Z,54.40
2018-06-18T12:21:43.022Z,54.05
2018-06-18T12:24:09.013Z,54.54
2018-06-18T12:26:34.991Z,54.68
2018-06-18T12:29:00.975Z,54.67
2018-06-18T12:31:26.956Z,54.54
2018-06-18T12:33:52.939Z,54.51
2018-06-18T12:36:18.979Z,54.62
2018-06-18T12:38:44.939Z,54.63
2018-06-18T12:41:10.975Z,54.60
2018-06-18T12:43:36.926Z,54.53
2018-06-18T12:46:02.930Z,54.81
2018-06-18T12:48:28.907Z,54.59
2018-06-18T12:50:54.890Z,54.81
2018-06-18T12:53:20.931Z,54.75
2018-06-18T12:55:46.871Z,54.64
2018-06-18T12:58:12.860Z,54.80
2018-06-18T13:00:38.840Z,54.60
2018-06-18T13:03:04.829Z,54.50
2018-06-18T13:05:31.937Z,54.32
2018-06-18T13:07:57.918Z,54.21
2018-06-18T13:10:23.894Z,54.38
2018-06-18T13:12:49.954Z,54.39
2018-06-18T13:15:15.903Z,54.39
2018-06-18T13:17:41.899Z,54.43
2018-06-18T13:20:07.869Z,54.33
2018-06-18T13:22:33.856Z,54.38
2018-06-18T13:24:59.843Z,53.74
2018-06-18T13:27:25.837Z,54.09
2018-06-18T13:29:51.805Z,54.06
2018-06-18T13:32:17.784Z,54.13
2018-06-18T13:34:45.713Z,54.00
2018-06-18T13:37:11.658Z,53.94
2018-06-18T13:39:37.641Z,53.89
2018-06-18T13:42:03.652Z,53.89
2018-06-18T13:44:29.603Z,53.89
2018-06-18T13:46:55.631Z,53.92
2018-06-18T13:49:21.621Z,53.93
2018-06-18T13:51:47.657Z,53.95
2018-06-18T13:54:13.606Z,54.14
2018-06-18T13:56:39.598Z,54.30
2018-06-18T13:59:05.632Z,54.35
2018-06-18T14:01:31.663Z,54.14
2018-06-18T14:03:57.723Z,54.10
2018-06-18T14:06:23.706Z,54.10
2018-06-18T14:08:49.733Z,54.04
2018-06-18T14:11:15.719Z,54.17
2018-06-18T14:13:41.752Z,54.24
2018-06-18T14:16:07.688Z,54.24
2018-06-18T14:18:33.691Z,54.27
2018-06-18T14:20:59.695Z,54.23
2018-06-18T14:23:25.690Z,54.15
2018-06-18T14:25:51.675Z,54.17
2018-06-18T14:28:17.833Z,54.15
2018-06-18T14:30:43.825Z,54.33
2018-06-18T14:33:09.815Z,54.17
2018-06-18T14:35:35.815Z,54.13
2018-06-18T14:38:01.885Z,54.22
2018-06-18T14:40:27.868Z,54.25
2018-06-18T14:42:53.862Z,54.10
2018-06-18T14:45:19.865Z,54.35
2018-06-18T14:47:45.882Z,54.37
2018-06-18T14:50:11.898Z,54.32
2018-06-18T14:52:37.929Z,54.17
2018-06-18T14:55:03.865Z,54.12
2018-06-18T14:57:29.860Z,54.22
2018-06-18T14:59:56.001Z,54.14
2018-06-18T15:02:21.856Z,54.18
2018-06-18T15:04:47.847Z,54.17
2018-06-18T15:07:13.833Z,54.25
2018-06-18T15:09:39.822Z,54.08
2018-06-18T15:12:05.803Z,54.30
2018-06-18T15:14:31.796Z,54.14
2018-06-18T15:16:57.803Z,54.28
2018-06-18T15:19:23.782Z,54.43
2018-06-18T15:21:49.783Z,54.17
2018-06-18T15:24:15.776Z,54.20
2018-06-18T15:26:41.756Z,54.19
2018-06-18T15:29:07.735Z,54.23
2018-06-18T15:31:33.725Z,54.31
2018-06-18T15:33:59.709Z,54.25
2018-06-18T15:36:25.702Z,54.30
2018-06-18T15:38:51.687Z,54.31
2018-06-18T15:41:17.682Z,54.43
2018-06-18T15:43:43.676Z,54.53
2018-06-18T15:46:09.644Z,54.59
2018-06-18T15:48:35.632Z,54.90
2018-06-18T15:51:01.618Z,55.40
2018-06-18T15:53:27.648Z,56.13
2018-06-18T15:55:53.600Z,55.23
2018-06-18T15:58:19.583Z,55.81
2018-06-18T16:00:45.563Z,56.68
2018-06-18T16:03:11.540Z,55.93
2018-06-18T16:05:37.519Z,56.71
2018-06-18T16:08:03.502Z,56.11
2018-06-18T16:10:29.494Z,55.98
2018-06-18T16:12:55.514Z,56.19
2018-06-18T16:15:21.496Z,56.99
2018-06-18T16:17:47.547Z,57.25
2018-06-18T16:20:13.486Z,56.32
2018-06-18T16:22:39.463Z,57.20
2018-06-18T16:25:05.468Z,56.38
2018-06-18T16:27:31.552Z,56.62
2018-06-18T16:29:57.566Z,56.70
2018-06-18T16:32:23.552Z,56.40
2018-06-18T16:34:49.542Z,56.37
2018-06-18T16:37:15.527Z,56.20
2018-06-18T16:39:41.519Z,56.93
2018-06-18T16:42:07.499Z,56.63
2018-06-18T16:44:33.482Z,57.00
2018-06-18T16:46:59.462Z,56.00
2018-06-18T16:49:25.533Z,56.07
2018-06-18T16:51:51.520Z,56.04
2018-06-18T16:54:17.541Z,56.28
2018-06-18T16:56:43.528Z,56.63
2018-06-18T16:59:09.513Z,56.48
2018-06-18T17:01:35.498Z,56.54
2018-06-18T17:04:01.497Z,56.08
2018-06-18T17:06:27.480Z,56.27
2018-06-18T17:08:54.862Z,56.14
2018-06-18T17:11:20.857Z,56.65
2018-06-18T17:13:46.913Z,55.89
2018-06-18T17:16:13.328Z,56.29
2018-06-18T17:18:39.314Z,55.80
2018-06-18T17:21:05.564Z,56.40
2018-06-18T17:23:31.555Z,55.78
2018-06-18T17:25:57.530Z,56.31
2018-06-18T17:28:23.508Z,55.84
2018-06-18T17:30:49.493Z,55.94
2018-06-18T17:33:15.478Z,56.33
2018-06-18T17:35:41.474Z,57.62
2018-06-18T17:38:07.517Z,56.37
2018-06-18T17:40:33.449Z,56.52
2018-06-18T17:42:59.440Z,57.16
2018-06-18T17:45:25.637Z,56.90
2018-06-18T17:47:51.724Z,56.61
2018-06-18T17:50:17.668Z,56.33
2018-06-18T17:52:43.658Z,56.43
2018-06-18T17:55:09.681Z,56.37
2018-06-18T17:57:35.716Z,56.25
2018-06-18T18:00:01.690Z,57.15
2018-06-18T18:02:27.681Z,58.83
2018-06-18T18:04:53.668Z,58.50
2018-06-18T18:07:19.658Z,57.44
2018-06-18T18:09:45.635Z,57.17
2018-06-18T18:12:11.676Z,57.08
2018-06-18T18:14:37.615Z,58.18
2018-06-18T18:17:03.635Z,57.37
2018-06-18T18:19:29.610Z,58.68
2018-06-18T18:21:55.596Z,57.79
2018-06-18T18:24:21.684Z,57.64
2018-06-18T18:26:47.696Z,57.56
2018-06-18T18:29:13.717Z,58.63
2018-06-18T18:31:39.693Z,58.00
2018-06-18T18:34:05.685Z,57.93
2018-06-18T18:36:31.709Z,58.62
2018-06-18T18:38:57.690Z,57.81
2018-06-18T18:41:23.712Z,57.76
2018-06-18T18:43:49.696Z,59.13
2018-06-18T18:46:15.694Z,59.45
2018-06-18T18:48:41.685Z,58.28
2018-06-18T18:51:07.769Z,58.62
2018-06-18T18:53:33.706Z,57.85
2018-06-18T18:55:59.690Z,57.82
2018-06-18T18:58:25.675Z,57.74
2018-06-18T19:00:51.668Z,57.82
2018-06-18T19:03:17.702Z,57.91
2018-06-18T19:05:43.682Z,59.17
2018-06-18T19:08:09.681Z,57.84
2018-06-18T19:10:35.664Z,57.99
2018-06-18T19:13:01.697Z,57.62
2018-06-18T19:15:27.967Z,57.81
2018-06-18T19:17:53.916Z,58.10
2018-06-18T19:20:19.907Z,57.87
2018-06-18T19:22:45.892Z,59.17
2018-06-18T19:25:13.907Z,59.34
2018-06-18T19:27:51.245Z,59.23
2018-06-18T19:30:17.274Z,58.43
2018-06-18T19:32:43.265Z,58.84
2018-06-18T19:35:09.306Z,58.50
2018-06-18T19:37:35.352Z,58.19
2018-06-18T19:40:01.294Z,58.71
2018-06-18T19:42:27.347Z,58.55
2018-06-18T19:44:53.331Z,58.30
2018-06-18T19:47:19.325Z,58.66
2018-06-18T19:49:45.314Z,57.42
2018-06-18T19:52:11.352Z,57.36
2018-06-18T19:54:37.338Z,57.23
2018-06-18T19:57:03.365Z,57.69
2018-06-18T19:59:29.441Z,57.56
2018-06-18T20:01:55.392Z,57.66
2018-06-18T20:04:21.373Z,57.56
2018-06-18T20:06:47.357Z,57.72
2018-06-18T20:09:13.347Z,57.70
2018-06-18T20:11:39.327Z,57.62
2018-06-18T20:14:05.386Z,57.71
2018-06-18T20:16:31.376Z,57.56
2018-06-18T20:18:57.405Z,57.54
2018-06-18T20:21:23.392Z,57.61
2018-06-18T20:23:49.370Z,57.52
2018-06-18T20:26:15.355Z,57.34
2018-06-18T20:28:41.344Z,57.38
2018-06-18T20:31:07.326Z,57.29
2018-06-18T20:33:33.329Z,57.36
2018-06-18T20:35:59.309Z,57.27
2018-06-18T20:38:25.322Z,57.27
2018-06-18T20:40:51.303Z,57.23
2018-06-18T20:43:17.293Z,57.20
2018-06-18T20:45:43.280Z,57.06
2018-06-18T20:48:09.253Z,57.07
2018-06-18T20:50:35.278Z,57.03
2018-06-18T20:53:01.246Z,56.98
2018-06-18T20:55:27.247Z,56.94
2018-06-18T20:57:53.230Z,56.97
2018-06-18T21:00:19.224Z,56.93
2018-06-18T21:02:45.232Z,56.87
2018-06-18T21:05:11.234Z,56.82
2018-06-18T21:07:37.174Z,56.77
2018-06-18T21:10:03.157Z,56.87
2018-06-18T21:12:29.147Z,56.68
2018-06-18T21:14:55.122Z,56.73
2018-06-18T21:17:21.115Z,56.69
2018-06-18T21:19:47.096Z,56.73
2018-06-18T21:22:13.100Z,56.68
2018-06-18T21:24:39.092Z,56.61
2018-06-18T21:27:05.118Z,56.69
2018-06-18T21:29:31.093Z,56.63
2018-06-18T21:31:57.075Z,56.64
2018-06-18T21:34:23.066Z,56.71
2018-06-18T21:36:49.054Z,56.78
2018-06-18T21:39:15.039Z,56.61
2018-06-18T21:41:41.018Z,56.69
2018-06-18T21:44:07.000Z,56.70
2018-06-18T21:46:32.987Z,56.58
2018-06-18T21:48:58.969Z,56.68
2018-06-18T21:51:24.959Z,56.67
2018-06-18T21:53:50.936Z,56.55
2018-06-18T21:56:16.914Z,56.48
2018-06-18T21:58:42.905Z,56.57
2018-06-18T22:01:08.883Z,56.57
2018-06-18T22:03:34.865Z,56.47
2018-06-18T22:06:00.917Z,56.53
2018-06-18T22:08:26.877Z,56.47
2018-06-18T22:10:52.923Z,56.50
2018-06-18T22:13:18.848Z,56.56
2018-06-18T22:15:44.825Z,56.39
2018-06-18T22:18:10.814Z,56.40
2018-06-18T22:20:36.800Z,56.47
2018-06-18T22:23:02.782Z,56.48
2018-06-18T22:25:28.764Z,56.34
2018-06-18T22:27:54.782Z,56.41
2018-06-18T22:30:20.752Z,56.50
2018-06-18T22:32:46.727Z,56.42
2018-06-18T22:35:12.710Z,56.35
2018-06-18T22:37:38.701Z,56.37
2018-06-18T22:40:04.679Z,56.77
2018-06-18T22:42:30.761Z,56.97
2018-06-18T22:44:56.647Z,56.65
2018-06-18T22:47:22.641Z,56.34
2018-06-18T22:49:48.621Z,56.47
2018-06-18T22:52:14.602Z,56.30
2018-06-18T22:54:40.578Z,56.26
2018-06-18T22:57:06.558Z,56.16
2018-06-18T22:59:32.543Z,56.39
2018-06-18T23:01:58.524Z,56.19
2018-06-18T23:04:24.502Z,56.39
2018-06-18T23:06:50.484Z,56.11
2018-06-18T23:09:16.459Z,56.20
2018-06-18T23:11:42.457Z,56.38
2018-06-18T23:14:08.439Z,56.23
2018-06-18T23:16:34.417Z,56.15
2018-06-18T23:19:00.412Z,56.24
2018-06-18T23:21:26.395Z,56.25
2018-06-18T23:23:52.374Z,56.43
2018-06-18T23:26:18.370Z,56.29
2018-06-18T23:28:44.345Z,56.37
2018-06-18T23:31:10.335Z,56.30
2018-06-18T23:33:36.312Z,56.20
2018-06-18T23:36:02.340Z,56.10
2018-06-18T23:38:28.319Z,56.17
2018-06-18T23:40:54.299Z,56.34
2018-06-18T23:43:20.283Z,56.21
2018-06-18T23:45:46.264Z,56.18
2018-06-18T23:48:12.242Z,56.01
2018-06-18T23:50:38.223Z,56.21
2018-06-18T23:53:04.202Z,56.30
2018-06-18T23:55:30.189Z,56.27
2018-06-18T23:57:56.181Z,56.14
